Marlinton, WV

1:47 PM EDT on September 05, 2015 (GMT -0400)
Thomastown | | Change Station
CLOSE
Current Station
Personal Weather Station
Location: Hot Springs, VA
Elevation: 2290 ft
Nearby Weather Stations

Elev 2290 ft 38.01 °N, 79.84 °W | Updated 8 seconds ago

Partly Cloudy
Partly Cloudy
83.1 °F
Feels Like 80 °F
N
0.0
Wind Variable Wind from ENE
Gusts 0.0 mph

Today
High -- | Low -- °F
--% Chance of Precip.
Yesterday
High -- | Low -- °F
Precip. -- in
6:53 AM 7:44 PM
Waning Gibbous, 46% visible
Pressure 30.32 in
Visibility 10.0 miles
Clouds Scattered Clouds 1500 ft
Scattered Clouds 2000 ft
Heat Index 80 °F
Dew Point 29 °F
Humidity 14%
Rainfall 0.00 in
Snow Depth Not available.
UV 8 out of 12
Pollen 9.60 out of 12
Air Quality Not available.
Flu Activity Not available.
METAR KHSP 051730Z AUTO 10006KT 10SM SCT015 SCT020 23/17 A3032 RMK AO2 T02280167
Pressure 30.32 in
Visibility 10.0 miles
Clouds Scattered Clouds 1500 ft
Scattered Clouds 2000 ft
Heat Index 80 °F
Dew Point 29 °F
Humidity 14%
Rainfall 0.00 in
Snow Depth Not available.
UV 8 out of 12
Pollen 9.60 out of 12
Air Quality Not available.
Flu Activity Not available.
METAR KHSP 051730Z AUTO 10006KT 10SM SCT015 SCT020 23/17 A3032 RMK AO2 T02280167

10-Day Weather Forecast

×

Almanac

Astronomy

Sep. 05, 2015 Rise Set
Actual Time
Civil Twilight
Nautical Twilight
Astronomical Twilight
Moon
Length of Visible Light
Length of Day
Tomorrow will be .
, % of the Moon is Illuminated

Today's Extremes

State Highs State Lows

Community

WunderPhotos

Upload Photos

1,852,508 photos uploaded!

WunderBlogs® & News

Nearby

Air Quality

  Air Quality AQ Index Pollutant
Not available.

Snow Depth

Station Depth Elevation

Earthquake Activity

City Distance Mag. Time & Date
Minimum magnitude displayed is 2.5.

Coastal Water Temperatures

Place Temperature

Stations

Nearby Weather Stations

Station Location Temp. Windchill Dew Point Humidity Wind Precip. Elev Updated Type